Time;durP1;ratioP1;P1;durP2;ratioP2;P2;SDS_P1;SDS_P2;PMS_P1;PMS_P2;Temp;Humidity;BMP_temperature;BMP_pressure;BME280_temperature;BME280_humidity;BME280_pressure;Samples;Min_cycle;Max_cycle;Signal;HPM_P1;HPM_P2
2022/06/18 00:01:33;;;;;;;12.05;10.80;;;19.10;99.90;;;;;;5082084;28;20467;-44
2022/06/18 00:04:20;;;;;;;12.77;11.23;;;19.00;99.90;;;;;;5078981;28;20078;-44
2022/06/18 00:06:57;;;;;;;11.25;10.10;;;19.00;99.90;;;;;;5082637;28;20121;-44
2022/06/18 00:09:54;;;;;;;12.98;11.20;;;19.00;99.90;;;;;;5082224;28;20044;-45
2022/06/18 00:15:23;;;;;;;12.43;11.18;;;19.00;99.90;;;;;;5083671;28;20375;-45
2022/06/18 00:17:50;;;;;;;12.63;11.38;;;19.00;99.90;;;;;;5082274;28;20115;-43
2022/06/18 00:20:17;;;;;;;13.15;11.05;;;19.00;99.90;;;;;;5082693;28;20047;-46
2022/06/18 00:22:47;;;;;;;13.25;10.68;;;19.00;99.90;;;;;;5082999;28;20508;-43
2022/06/18 00:25:44;;;;;;;13.88;11.07;;;19.00;99.90;;;;;;5081708;28;20092;-45
2022/06/18 00:28:20;;;;;;;14.55;11.07;;;19.00;99.90;;;;;;4993603;28;20057;-45
2022/06/18 00:30:47;;;;;;;12.13;11.02;;;19.00;99.90;;;;;;4996162;28;20050;-48
2022/06/18 00:33:13;;;;;;;14.30;10.93;;;19.00;99.90;;;;;;5002393;28;20108;-48
2022/06/18 00:35:43;;;;;;;13.40;11.05;;;19.00;99.90;;;;;;4998319;28;20058;-49
2022/06/18 00:38:24;;;;;;;12.45;11.25;;;19.00;99.90;;;;;;4999265;28;20077;-47
2022/06/18 00:40:51;;;;;;;13.13;11.52;;;19.00;99.90;;;;;;4998825;28;20564;-45
2022/06/18 00:43:36;;;;;;;12.95;11.20;;;19.00;99.90;;;;;;4998660;28;20069;-46
2022/06/18 00:46:35;;;;;;;12.27;11.18;;;18.90;99.90;;;;;;4998505;28;20066;-44
2022/06/18 00:49:18;;;;;;;12.80;11.60;;;18.90;99.90;;;;;;4996606;28;20541;-43
2022/06/18 00:51:49;;;;;;;14.90;10.90;;;18.90;99.90;;;;;;4998469;28;20057;-43
2022/06/18 00:54:27;;;;;;;11.77;10.60;;;18.80;99.90;;;;;;4998254;28;20128;-49
2022/06/18 00:57:08;;;;;;;15.32;11.10;;;18.80;99.90;;;;;;4983481;28;20055;-43
2022/06/18 00:59:41;;;;;;;13.20;11.80;;;18.80;99.90;;;;;;4995322;28;20646;-44
2022/06/18 01:02:16;;;;;;;12.60;11.27;;;18.80;99.90;;;;;;4998377;28;20053;-44
2022/06/18 01:04:42;;;;;;;15.85;12.20;;;18.80;99.90;;;;;;5042559;28;20095;-44
2022/06/18 01:07:28;;;;;;;12.65;11.23;;;18.80;99.90;;;;;;5080501;28;20567;-43
2022/06/18 01:09:53;;;;;;;14.18;12.68;;;18.80;99.90;;;;;;5081959;28;20048;-44
2022/06/18 01:12:21;;;;;;;14.40;12.93;;;18.80;99.90;;;;;;5080381;28;20466;-43
2022/06/18 01:14:50;;;;;;;14.18;12.85;;;18.80;99.90;;;;;;5080526;28;20486;-43
2022/06/18 01:17:17;;;;;;;14.10;12.85;;;18.70;99.90;;;;;;5086513;28;20634;-43
2022/06/18 01:19:47;;;;;;;14.65;11.68;;;18.70;99.90;;;;;;5081197;28;20050;-44
2022/06/18 01:22:30;;;;;;;15.98;13.70;;;18.70;99.90;;;;;;5080739;28;20048;-43
2022/06/18 01:24:56;;;;;;;15.10;13.65;;;18.70;99.90;;;;;;5081478;28;20358;-44
2022/06/18 01:27:23;;;;;;;14.15;12.75;;;18.60;99.90;;;;;;5075148;28;20055;-43
2022/06/18 01:29:48;;;;;;;15.73;13.73;;;18.70;99.90;;;;;;5081388;28;20078;-44
2022/06/18 01:32:17;;;;;;;14.98;13.45;;;18.70;99.90;;;;;;5080880;28;20577;-44
2022/06/18 01:34:44;;;;;;;14.98;13.38;;;18.60;99.90;;;;;;5080961;28;20054;-44
2022/06/18 01:37:11;;;;;;;14.02;12.15;;;18.60;99.90;;;;;;5081003;28;20048;-44
2022/06/18 01:39:40;;;;;;;13.45;12.18;;;18.60;99.90;;;;;;5086652;28;20115;-45
2022/06/18 01:42:20;;;;;;;13.05;11.18;;;18.60;99.90;;;;;;5075419;28;20498;-45
2022/06/18 01:45:09;;;;;;;12.70;11.40;;;18.60;99.90;;;;;;5080147;28;20044;-44
2022/06/18 01:47:43;;;;;;;13.95;11.68;;;18.60;99.90;;;;;;5080295;28;20171;-45
2022/06/18 01:50:25;;;;;;;13.07;11.75;;;18.60;99.90;;;;;;5081937;28;20040;-46
2022/06/18 01:53:01;;;;;;;12.63;11.02;;;18.60;99.90;;;;;;5079105;28;20858;-46
2022/06/18 01:55:32;;;;;;;15.27;11.65;;;18.60;99.90;;;;;;5083015;28;20040;-44
2022/06/18 01:58:15;;;;;;;12.35;11.15;;;18.60;99.90;;;;;;5087926;28;20080;-46
2022/06/18 02:00:43;;;;;;;15.88;11.00;;;18.60;99.90;;;;;;5087982;28;20051;-45
2022/06/18 02:03:09;;;;;;;14.98;11.55;;;18.60;99.90;;;;;;5079957;28;20078;-47
2022/06/18 02:05:37;;;;;;;15.15;10.90;;;18.60;99.90;;;;;;5080188;28;20048;-45
2022/06/18 02:08:06;;;;;;;18.92;11.93;;;18.60;99.90;;;;;;5080963;28;20051;-43
2022/06/18 02:10:59;;;;;;;15.20;12.23;;;18.60;99.90;;;;;;5081159;28;20131;-45
2022/06/18 02:13:31;;;;;;;15.68;13.15;;;18.60;99.90;;;;;;4981350;28;20232;-43
2022/06/18 02:16:01;;;;;;;17.77;12.73;;;18.60;99.90;;;;;;4997351;28;20097;-45
2022/06/18 02:18:28;;;;;;;22.70;13.77;;;18.60;99.90;;;;;;4996996;28;20759;-43
2022/06/18 02:20:56;;;;;;;17.55;13.50;;;18.50;99.90;;;;;;5000124;28;20156;-45
2022/06/18 02:23:23;;;;;;;18.65;12.90;;;18.50;99.90;;;;;;4984905;28;20516;-43
2022/06/18 02:25:49;;;;;;;19.13;13.60;;;18.50;99.90;;;;;;5001224;28;20615;-43
2022/06/18 02:28:22;;;;;;;19.52;13.63;;;18.50;99.90;;;;;;5000135;28;20081;-44
2022/06/18 02:30:49;;;;;;;16.90;14.00;;;18.40;99.90;;;;;;5001242;28;20144;-43
2022/06/18 02:33:47;;;;;;;22.17;15.07;;;18.40;99.90;;;;;;5001866;28;20052;-43
2022/06/18 02:36:20;;;;;;;16.38;13.02;;;18.40;99.90;;;;;;4985522;28;20050;-43
2022/06/18 02:38:48;;;;;;;19.92;14.02;;;18.40;99.90;;;;;;4997732;28;20379;-43
2022/06/18 02:41:14;;;;;;;20.45;15.20;;;18.30;99.90;;;;;;5001081;28;20065;-44
2022/06/18 02:43:43;;;;;;;17.63;15.75;;;18.30;99.90;;;;;;5002194;28;20440;-44
2022/06/18 02:46:09;;;;;;;21.25;16.70;;;18.20;99.90;;;;;;5010729;28;20057;-44
2022/06/18 02:48:37;;;;;;;27.58;15.80;;;18.20;99.90;;;;;;4999849;28;20451;-44
2022/06/18 02:51:04;;;;;;;23.00;15.82;;;18.10;99.90;;;;;;5064315;28;20441;-44
2022/06/18 02:53:31;;;;;;;26.67;16.75;;;18.10;99.90;;;;;;5084445;28;20052;-43
2022/06/18 02:56:02;;;;;;;21.60;17.35;;;18.10;99.90;;;;;;5083714;28;20073;-43
2022/06/18 02:58:37;;;;;;;22.25;16.63;;;18.00;99.90;;;;;;5089559;28;20380;-44
2022/06/18 03:01:07;;;;;;;25.23;18.25;;;18.00;99.90;;;;;;5082678;28;20044;-43
2022/06/18 03:03:36;;;;;;;23.45;17.77;;;17.90;99.90;;;;;;5083487;28;20050;-43
2022/06/18 03:06:03;;;;;;;21.17;18.42;;;17.90;99.90;;;;;;5083914;28;20406;-43
2022/06/18 03:08:31;;;;;;;22.73;17.90;;;17.90;99.90;;;;;;5084359;28;20044;-44
2022/06/18 03:13:42;;;;;;;22.88;18.85;;;17.80;99.90;;;;;;5079564;28;20117;-44
2022/06/18 03:16:10;;;;;;;22.85;18.88;;;17.80;99.90;;;;;;5087867;28;20873;-46
2022/06/18 03:18:37;;;;;;;24.77;18.33;;;17.80;99.90;;;;;;5083934;28;20079;-43
2022/06/18 03:21:24;;;;;;;31.05;20.17;;;17.70;99.90;;;;;;5090906;28;20043;-43
2022/06/18 03:23:50;;;;;;;23.75;19.67;;;17.70;99.90;;;;;;5084267;28;20233;-43
2022/06/18 03:26:17;;;;;;;28.23;19.83;;;17.70;99.90;;;;;;5084134;28;20055;-45
2022/06/18 03:28:44;;;;;;;24.27;20.25;;;17.70;99.90;;;;;;5084070;28;20333;-43
2022/06/18 03:31:10;;;;;;;30.08;21.08;;;17.70;99.90;;;;;;5082703;28;20052;-43
2022/06/18 03:33:36;;;;;;;32.78;21.33;;;17.70;99.90;;;;;;5083501;28;20455;-44
2022/06/18 03:36:04;;;;;;;26.35;21.05;;;17.70;99.90;;;;;;5082548;28;20051;-43
2022/06/18 03:38:30;;;;;;;30.27;21.73;;;17.70;99.90;;;;;;5082484;28;20047;-43
2022/06/18 03:40:56;;;;;;;31.35;21.65;;;17.70;99.90;;;;;;5083020;28;20048;-43
2022/06/18 03:43:24;;;;;;;32.60;22.45;;;17.80;99.90;;;;;;5074027;28;20597;-44
2022/06/18 03:46:02;;;;;;;25.92;21.50;;;17.80;99.90;;;;;;5082535;28;20581;-43
2022/06/18 03:48:40;;;;;;;31.50;22.38;;;17.80;99.90;;;;;;5081129;28;20066;-43
2022/06/18 03:51:06;;;;;;;30.05;22.45;;;17.80;99.90;;;;;;5088412;28;20052;-44
2022/06/18 03:53:33;;;;;;;31.27;23.17;;;17.80;99.90;;;;;;5082773;28;20393;-43
2022/06/18 03:55:58;;;;;;;25.25;22.20;;;17.90;99.90;;;;;;5082661;28;20415;-43
2022/06/18 03:58:27;;;;;;;32.78;21.75;;;17.90;99.90;;;;;;5090054;28;20036;-44
2022/06/18 04:00:53;;;;;;;32.60;21.92;;;18.00;99.90;;;;;;5080111;28;20094;-45
2022/06/18 04:03:18;;;;;;;26.60;21.42;;;18.30;99.90;;;;;;5081961;28;20500;-45
2022/06/18 04:05:44;;;;;;;31.90;21.83;;;18.50;99.90;;;;;;5081906;28;20044;-43
2022/06/18 04:08:14;;;;;;;29.33;21.45;;;18.70;99.90;;;;;;5081794;28;20056;-42
2022/06/18 04:10:40;;;;;;;32.80;21.20;;;18.90;99.90;;;;;;5090046;28;20128;-46
2022/06/18 04:13:06;;;;;;;26.88;20.38;;;19.10;99.90;;;;;;5089441;28;20055;-46
2022/06/18 04:15:32;;;;;;;28.38;20.77;;;19.30;99.90;;;;;;5081201;28;20044;-44
2022/06/18 04:17:58;;;;;;;25.25;20.17;;;19.50;99.90;;;;;;5081933;28;20062;-43
2022/06/18 04:20:29;;;;;;;32.92;20.67;;;19.80;99.90;;;;;;5066796;28;20399;-43
2022/06/18 04:22:55;;;;;;;26.25;20.48;;;20.00;99.90;;;;;;5082584;28;20067;-45
2022/06/18 04:25:21;;;;;;;23.70;19.98;;;20.30;99.90;;;;;;5076143;28;20067;-43
2022/06/18 04:27:48;;;;;;;31.67;20.58;;;20.50;99.90;;;;;;5077131;28;20104;-45
2022/06/18 04:30:15;;;;;;;28.70;19.95;;;20.80;99.90;;;;;;5089244;28;20480;-44
2022/06/18 04:32:41;;;;;;;25.98;19.35;;;21.00;99.90;;;;;;5083272;28;20052;-44
2022/06/18 04:35:09;;;;;;;25.50;19.48;;;21.30;99.90;;;;;;5068598;28;20056;-44
2022/06/18 04:37:35;;;;;;;26.23;18.48;;;21.70;99.90;;;;;;5080926;28;20402;-47
2022/06/18 04:40:05;;;;;;;32.78;18.45;;;22.00;99.90;;;;;;5082941;28;20592;-45
2022/06/18 04:42:31;;;;;;;25.85;17.40;;;22.20;99.90;;;;;;5088929;28;20136;-48
2022/06/18 04:44:57;;;;;;;23.90;17.75;;;22.70;99.90;;;;;;5082041;28;20127;-44
2022/06/18 04:47:23;;;;;;;25.52;18.42;;;22.90;99.90;;;;;;5081453;28;20051;-43
2022/06/18 04:49:50;;;;;;;25.48;17.98;;;23.20;99.90;;;;;;5081664;28;20050;-45
2022/06/18 04:52:16;;;;;;;25.25;17.80;;;23.30;99.90;;;;;;5087775;28;20052;-44
2022/06/18 04:54:43;;;;;;;22.13;16.58;;;23.60;99.90;;;;;;5081701;28;20051;-44
2022/06/18 04:57:09;;;;;;;25.02;17.65;;;23.90;99.90;;;;;;5080336;28;20059;-44
2022/06/18 04:59:35;;;;;;;22.45;16.77;;;24.10;99.90;;;;;;5081192;28;20099;-44
2022/06/18 05:02:05;;;;;;;24.40;17.55;;;24.50;99.90;;;;;;5081789;28;20402;-44
2022/06/18 05:04:31;;;;;;;19.50;16.75;;;24.80;99.90;;;;;;5081159;28;20059;-44
2022/06/18 05:06:57;;;;;;;24.45;16.08;;;25.10;99.90;;;;;;5081092;28;20540;-45
2022/06/18 05:09:22;;;;;;;25.17;17.45;;;25.20;99.90;;;;;;5081326;28;20052;-44
2022/06/18 05:11:48;;;;;;;21.00;16.88;;;25.40;99.90;;;;;;5061365;28;20055;-46
2022/06/18 05:14:14;;;;;;;21.15;16.38;;;25.60;99.90;;;;;;5078246;28;20043;-44
2022/06/18 05:16:41;;;;;;;26.77;16.85;;;25.70;99.90;;;;;;5079874;28;20052;-43
2022/06/18 05:19:19;;;;;;;22.52;16.00;;;25.90;99.90;;;;;;5081487;28;20055;-46
2022/06/18 05:21:50;;;;;;;23.50;17.13;;;25.90;99.90;;;;;;5081095;28;20095;-45
2022/06/18 05:24:18;;;;;;;20.58;16.00;;;26.20;99.90;;;;;;5080597;28;20398;-44
2022/06/18 05:26:47;;;;;;;23.83;16.15;;;26.30;99.90;;;;;;5080631;28;20051;-45
2022/06/18 05:29:14;;;;;;;24.58;15.52;;;26.70;99.90;;;;;;5081333;28;20494;-44
2022/06/18 05:31:39;;;;;;;24.17;15.38;;;27.00;99.90;;;;;;5080445;28;20048;-47
2022/06/18 05:34:05;;;;;;;27.55;16.70;;;27.40;99.90;;;;;;5075354;28;20380;-48
2022/06/18 05:36:31;;;;;;;24.40;16.50;;;27.70;99.90;;;;;;5085839;28;20429;-44
2022/06/18 05:38:57;;;;;;;25.35;15.27;;;27.70;99.80;;;;;;5081395;28;20047;-44
2022/06/18 05:41:24;;;;;;;25.23;15.40;;;27.80;99.70;;;;;;5065625;28;20048;-46
2022/06/18 05:43:50;;;;;;;21.33;14.55;;;27.80;99.10;;;;;;5082838;28;20485;-46
2022/06/18 05:46:16;;;;;;;25.80;14.43;;;27.90;98.80;;;;;;5083933;28;20494;-47
2022/06/18 05:48:42;;;;;;;20.33;14.10;;;28.20;99.10;;;;;;5075206;28;20133;-46
2022/06/18 05:51:08;;;;;;;20.13;13.88;;;28.40;98.70;;;;;;5070987;28;20540;-44
2022/06/18 05:53:34;;;;;;;22.35;14.18;;;28.90;98.40;;;;;;5077107;28;20483;-47
2022/06/18 05:56:00;;;;;;;20.00;13.18;;;29.20;97.80;;;;;;5080588;28;20071;-44
2022/06/18 05:58:26;;;;;;;23.67;12.80;;;29.20;97.50;;;;;;5082394;28;20044;-46
2022/06/18 06:00:51;;;;;;;20.88;12.93;;;29.20;97.10;;;;;;5072769;28;20055;-45
2022/06/18 06:03:17;;;;;;;15.18;12.10;;;29.20;97.10;;;;;;5081759;28;20048;-45
2022/06/18 06:05:43;;;;;;;19.15;12.23;;;29.60;97.00;;;;;;5080255;28;20564;-45
2022/06/18 06:08:13;;;;;;;18.95;12.27;;;29.60;96.90;;;;;;5080565;28;20052;-46
2022/06/18 06:13:24;;;;;;;20.73;11.77;;;30.10;96.10;;;;;;5077818;28;20492;-44
2022/06/18 06:15:52;;;;;;;20.80;11.48;;;30.50;95.50;;;;;;5080557;28;20060;-45
2022/06/18 06:18:19;;;;;;;17.20;10.48;;;30.40;95.30;;;;;;5079936;28;20044;-47
2022/06/18 06:20:50;;;;;;;15.15;10.98;;;30.70;95.20;;;;;;5068995;28;20059;-47
2022/06/18 06:23:16;;;;;;;18.38;9.52;;;30.90;94.70;;;;;;5063584;28;20048;-45
2022/06/18 06:25:43;;;;;;;16.40;10.57;;;30.80;94.90;;;;;;5071844;28;20094;-45
2022/06/18 06:28:21;;;;;;;15.90;9.43;;;30.70;94.40;;;;;;5066436;28;20116;-45
2022/06/18 06:30:51;;;;;;;16.70;9.80;;;30.60;94.20;;;;;;5069670;28;20059;-46
2022/06/18 06:33:18;;;;;;;13.43;9.88;;;30.70;94.60;;;;;;5066907;28;20469;-45
2022/06/18 06:35:45;;;;;;;15.10;8.70;;;30.80;94.20;;;;;;5080183;28;20093;-44
2022/06/18 06:38:11;;;;;;;11.85;8.10;;;31.00;93.50;;;;;;5079893;28;20064;-45
2022/06/18 06:40:37;;;;;;;13.63;8.60;;;31.20;93.70;;;;;;5066348;28;20104;-45
2022/06/18 06:43:04;;;;;;;14.18;8.27;;;31.20;93.70;;;;;;5069329;28;20633;-46
2022/06/18 06:45:34;;;;;;;9.98;7.28;;;31.30;93.70;;;;;;5066231;28;20098;-45
2022/06/18 06:48:00;;;;;;;9.45;7.50;;;31.40;93.10;;;;;;5079549;28;20092;-47
2022/06/18 06:50:28;;;;;;;11.13;7.85;;;31.20;93.60;;;;;;5074342;28;20047;-45
2022/06/18 06:52:55;;;;;;;13.20;8.32;;;31.30;93.70;;;;;;5059747;28;20586;-46
2022/06/18 06:58:19;;;;;;;16.52;8.48;;;31.40;92.60;;;;;;5016760;28;20057;-44
2022/06/18 07:00:48;;;;;;;14.85;7.35;;;31.30;93.30;;;;;;5017007;28;20054;-45
2022/06/18 07:03:18;;;;;;;15.55;8.30;;;31.20;93.60;;;;;;5010581;28;20607;-44
2022/06/18 07:05:44;;;;;;;10.57;6.80;;;31.10;93.20;;;;;;5012413;28;20405;-46
2022/06/18 07:08:11;;;;;;;11.13;6.93;;;31.20;93.70;;;;;;5013111;28;20060;-48
2022/06/18 07:10:37;;;;;;;13.55;7.35;;;31.20;93.50;;;;;;5018991;28;20045;-44
2022/06/18 07:13:04;;;;;;;11.68;7.97;;;31.40;93.50;;;;;;5010639;28;20065;-45
2022/06/18 07:15:30;;;;;;;11.93;6.47;;;31.40;93.50;;;;;;5014640;28;20061;-45
2022/06/18 07:17:58;;;;;;;11.05;4.88;;;31.20;93.30;;;;;;5013368;28;20297;-46
2022/06/18 07:20:24;;;;;;;5.65;3.20;;;31.30;93.20;;;;;;5014112;28;20123;-46
2022/06/18 07:22:50;;;;;;;7.55;4.00;;;31.40;93.10;;;;;;5022261;28;20065;-47
2022/06/18 07:25:16;;;;;;;5.80;3.90;;;31.20;92.90;;;;;;5013467;28;20504;-48
2022/06/18 07:27:42;;;;;;;6.80;3.85;;;31.00;93.60;;;;;;5020733;28;20041;-46
2022/06/18 07:30:10;;;;;;;7.60;4.03;;;30.30;93.80;;;;;;4997046;28;20132;-48
2022/06/18 07:32:42;;;;;;;8.32;4.22;;;29.80;94.20;;;;;;5020448;28;20131;-44
2022/06/18 07:35:16;;;;;;;9.73;4.65;;;29.50;94.80;;;;;;5033991;28;20698;-45
2022/06/18 07:37:42;;;;;;;7.45;4.20;;;29.40;94.80;;;;;;5080474;28;20058;-45
2022/06/18 07:40:08;;;;;;;9.73;4.55;;;29.30;94.70;;;;;;5057450;28;20036;-45
2022/06/18 07:42:35;;;;;;;11.00;4.32;;;29.20;94.70;;;;;;5077081;28;20589;-46
2022/06/18 07:45:01;;;;;;;8.00;4.30;;;29.20;95.20;;;;;;5071763;28;20048;-44
2022/06/18 07:47:27;;;;;;;8.73;3.88;;;29.00;95.40;;;;;;5078666;28;20059;-45
2022/06/18 07:49:52;;;;;;;9.25;3.47;;;28.90;95.30;;;;;;5081739;28;20052;-50
2022/06/18 07:52:18;;;;;;;10.32;3.72;;;28.70;95.90;;;;;;5048610;28;20060;-47
2022/06/18 07:54:45;;;;;;;6.30;2.70;;;28.20;95.90;;;;;;5071516;28;20048;-46
2022/06/18 07:57:11;;;;;;;6.90;2.90;;;28.30;95.60;;;;;;5079165;28;20084;-44
2022/06/18 07:59:38;;;;;;;6.13;2.90;;;28.40;96.00;;;;;;5077428;28;20063;-44
2022/06/18 08:02:09;;;;;;;7.05;2.88;;;28.10;95.20;;;;;;5081438;28;20055;-44
2022/06/18 08:04:34;;;;;;;6.93;2.58;;;28.10;95.60;;;;;;5077270;28;20051;-45
2022/06/18 08:07:01;;;;;;;3.45;2.40;;;28.10;96.30;;;;;;5082455;28;20555;-45
2022/06/18 08:09:27;;;;;;;6.47;2.30;;;27.90;96.20;;;;;;5082578;28;20048;-45
2022/06/18 08:11:52;;;;;;;4.82;2.00;;;28.10;96.60;;;;;;5083010;28;20478;-44
2022/06/18 08:14:18;;;;;;;4.05;1.98;;;28.10;96.80;;;;;;5081980;28;20048;-45
2022/06/18 08:16:44;;;;;;;3.63;1.80;;;28.20;96.50;;;;;;5091598;28;20059;-44
2022/06/18 08:19:10;;;;;;;6.95;2.13;;;28.10;96.30;;;;;;5101066;28;20078;-44
2022/06/18 08:21:44;;;;;;;3.25;1.58;;;28.10;96.90;;;;;;5102539;28;20051;-46
2022/06/18 08:24:19;;;;;;;7.28;2.15;;;27.80;96.50;;;;;;5102489;28;20050;-45
2022/06/18 08:26:45;;;;;;;4.07;2.17;;;27.80;96.60;;;;;;5103207;28;20553;-44
2022/06/18 08:29:15;;;;;;;7.18;1.95;;;27.80;96.90;;;;;;5102277;28;20126;-45
2022/06/18 08:31:41;;;;;;;4.63;1.80;;;27.70;96.80;;;;;;5102657;28;20151;-45
2022/06/18 08:34:07;;;;;;;3.20;1.67;;;27.60;97.20;;;;;;5101764;28;20048;-44
2022/06/18 08:36:34;;;;;;;4.53;2.25;;;27.80;96.70;;;;;;5101588;28;20047;-47
2022/06/18 08:39:02;;;;;;;4.45;2.22;;;27.80;96.80;;;;;;5103029;28;20046;-45
2022/06/18 08:41:40;;;;;;;4.03;1.95;;;27.60;96.70;;;;;;5102479;28;20079;-45
2022/06/18 08:44:27;;;;;;;37.50;3.78;;;27.50;97.10;;;;;;5102499;28;20486;-44
2022/06/18 08:47:21;;;;;;;8.07;2.03;;;27.50;96.90;;;;;;5096982;28;20104;-46
2022/06/18 08:49:54;;;;;;;4.72;2.05;;;27.30;96.80;;;;;;5103151;28;20168;-47
2022/06/18 08:52:43;;;;;;;4.47;1.67;;;27.30;97.70;;;;;;5102936;28;20047;-46
2022/06/18 08:55:17;;;;;;;5.85;2.20;;;27.30;97.30;;;;;;5105129;28;20413;-48
2022/06/18 08:57:54;;;;;;;5.57;2.70;;;27.50;97.00;;;;;;5102657;28;20444;-45
2022/06/18 09:00:58;;;;;;;4.60;1.90;;;27.30;97.00;;;;;;5102554;28;20055;-47
2022/06/18 09:03:51;;;;;;;13.07;2.67;;;27.40;97.30;;;;;;5000537;28;20060;-45
2022/06/18 09:06:29;;;;;;;9.48;2.10;;;27.40;97.00;;;;;;4998088;28;20053;-44
2022/06/18 09:09:03;;;;;;;2.40;1.73;;;27.40;98.00;;;;;;4998500;28;20563;-47
2022/06/18 09:11:54;;;;;;;7.03;2.97;;;27.40;97.60;;;;;;4999329;28;20050;-45
2022/06/18 09:14:30;;;;;;;6.03;2.22;;;27.50;97.30;;;;;;4998240;28;20115;-45
2022/06/18 09:17:22;;;;;;;4.70;2.53;;;27.30;97.40;;;;;;4991305;28;20168;-47
2022/06/18 09:20:17;;;;;;;3.53;2.47;;;27.50;98.80;;;;;;4921827;29;20059;-45
2022/06/18 09:22:51;;;;;;;9.45;2.58;;;27.10;98.00;;;;;;4881341;29;20064;-45
2022/06/18 09:25:19;;;;;;;69.40;7.25;;;27.10;98.50;;;;;;4882756;29;20425;-44
2022/06/18 09:28:05;;;;;;;7.82;3.05;;;27.10;98.50;;;;;;4881732;29;20056;-44
2022/06/18 09:30:43;;;;;;;4.80;2.60;;;27.30;99.30;;;;;;4883201;29;20109;-44
2022/06/18 09:33:24;;;;;;;5.72;3.15;;;27.10;98.50;;;;;;4866110;29;20409;-46
2022/06/18 09:36:07;;;;;;;8.15;2.75;;;26.80;97.60;;;;;;4881603;29;20580;-45
2022/06/18 09:38:35;;;;;;;;;;;27.00;98.60;;;;;;4896492;29;20601;-45
2022/06/18 09:41:10;;;;;;;4.25;2.35;;;26.50;97.60;;;;;;4905683;29;20476;-45
2022/06/18 09:43:45;;;;;;;4.72;2.35;;;26.60;98.00;;;;;;4921553;29;20522;-44
2022/06/18 09:46:24;;;;;;;4.45;2.13;;;26.60;97.90;;;;;;4915788;29;20067;-46
2022/06/18 09:48:50;;;;;;;5.15;2.22;;;26.70;97.80;;;;;;4919612;29;20093;-45
2022/06/18 09:51:39;;;;;;;6.43;2.95;;;26.80;98.30;;;;;;4920927;29;20103;-44
2022/06/18 09:54:07;;;;;;;4.38;1.92;;;27.00;98.20;;;;;;4919693;29;20067;-45
2022/06/18 09:56:38;;;;;;;4.57;2.35;;;26.90;98.30;;;;;;4955614;28;20546;-47
2022/06/18 09:59:19;;;;;;;2.47;1.70;;;27.00;98.00;;;;;;5014261;28;20059;-44
2022/06/18 10:01:49;;;;;;;3.92;2.00;;;27.00;97.00;;;;;;5078851;28;20056;-44
2022/06/18 10:07:09;;;;;;;8.32;2.53;;;27.00;98.20;;;;;;5071652;28;20060;-45
2022/06/18 10:09:50;;;;;;;5.40;1.83;;;27.00;98.10;;;;;;5062818;28;20052;-45
2022/06/18 10:12:30;;;;;;;3.65;2.00;;;27.00;98.10;;;;;;5062362;28;20174;-45
2022/06/18 10:15:00;;;;;;;4.97;1.83;;;27.10;97.80;;;;;;5062316;28;20087;-44
2022/06/18 10:17:35;;;;;;;5.28;2.05;;;27.20;98.10;;;;;;5090095;28;20100;-44
2022/06/18 10:20:22;;;;;;;5.13;1.70;;;27.20;97.80;;;;;;5092791;28;20175;-45
2022/06/18 10:23:03;;;;;;;5.32;1.90;;;27.30;97.70;;;;;;5101514;28;20048;-45
2022/06/18 10:25:41;;;;;;;5.30;2.03;;;27.10;98.10;;;;;;5077832;28;20055;-44
2022/06/18 10:28:29;;;;;;;4.72;1.95;;;27.10;98.10;;;;;;5089605;28;20051;-46
2022/06/18 10:31:19;;;;;;;4.95;2.40;;;27.10;97.70;;;;;;5098787;28;20109;-49
2022/06/18 10:34:01;;;;;;;3.42;1.67;;;27.10;97.60;;;;;;5098522;28;20055;-44
2022/06/18 10:36:36;;;;;;;4.03;2.20;;;26.90;98.50;;;;;;5098937;28;20054;-44
2022/06/18 10:39:22;;;;;;;6.72;2.47;;;27.10;98.40;;;;;;5071369;28;20064;-44
2022/06/18 10:42:12;;;;;;;4.68;2.13;;;27.10;98.20;;;;;;5101233;28;20039;-45
2022/06/18 10:45:04;;;;;;;4.80;2.92;;;27.20;98.10;;;;;;5082704;28;20131;-43
2022/06/18 10:47:33;;;;;;;3.85;1.98;;;27.20;98.00;;;;;;5097760;28;20052;-44
2022/06/18 10:50:05;;;;;;;5.80;2.00;;;27.30;98.50;;;;;;5076595;28;20093;-45
2022/06/18 10:52:31;;;;;;;4.63;1.73;;;26.90;97.50;;;;;;5055765;28;20056;-44
2022/06/18 10:55:13;;;;;;;7.50;2.78;;;26.80;98.80;;;;;;5102703;28;20100;-46
2022/06/18 10:57:39;;;;;;;3.38;1.73;;;26.80;98.50;;;;;;5091488;28;20048;-45
2022/06/18 11:00:26;;;;;;;3.03;1.63;;;26.80;98.50;;;;;;5095845;28;20062;-45
2022/06/18 11:02:55;;;;;;;5.75;2.42;;;26.90;99.40;;;;;;5065777;28;20149;-46
2022/06/18 11:05:32;;;;;;;4.13;2.35;;;26.60;98.30;;;;;;5076665;28;20047;-46
2022/06/18 11:08:01;;;;;;;4.28;2.20;;;26.00;98.50;;;;;;5072040;28;20060;-46
2022/06/18 11:10:52;;;;;;;5.38;2.28;;;26.00;98.90;;;;;;5071520;28;20049;-46
2022/06/18 11:13:30;;;;;;;3.75;2.05;;;25.90;99.70;;;;;;5068896;28;20052;-46
2022/06/18 11:16:26;;;;;;;4.60;2.05;;;26.20;99.80;;;;;;5088440;28;20058;-47
2022/06/18 11:19:01;;;;;;;3.45;2.08;;;26.50;99.90;;;;;;5087272;28;20574;-45
2022/06/18 11:21:40;;;;;;;4.03;1.70;;;26.40;98.70;;;;;;5081385;28;20036;-45
2022/06/18 11:24:16;;;;;;;3.33;1.63;;;26.60;99.50;;;;;;5082620;28;20051;-46
2022/06/18 11:26:48;;;;;;;3.17;1.92;;;26.60;99.10;;;;;;5085348;28;20083;-48
2022/06/18 11:29:32;;;;;;;4.78;1.88;;;26.70;98.20;;;;;;5085746;28;20129;-46
2022/06/18 11:32:01;;;;;;;5.38;1.65;;;26.70;99.10;;;;;;5067391;28;20066;-46
2022/06/18 11:34:33;;;;;;;3.58;1.60;;;27.00;98.50;;;;;;5103907;28;20044;-46
2022/06/18 11:37:10;;;;;;;4.45;1.48;;;27.20;98.20;;;;;;5103774;28;20115;-46
2022/06/18 11:39:38;;;;;;;5.00;1.63;;;27.20;98.50;;;;;;5090093;28;20043;-46
2022/06/18 11:42:16;;;;;;;2.45;1.20;;;27.30;98.30;;;;;;5094783;28;20052;-45
2022/06/18 11:45:05;;;;;;;4.20;1.42;;;27.30;97.30;;;;;;5094382;28;20055;-46
2022/06/18 11:47:41;;;;;;;3.22;1.20;;;27.30;97.80;;;;;;5096295;28;20051;-46
2022/06/18 11:50:23;;;;;;;3.97;1.52;;;27.50;97.90;;;;;;5085349;28;20086;-46
2022/06/18 11:53:08;;;;;;;;;;;27.50;98.10;;;;;;5078220;28;20055;-46
2022/06/18 11:55:43;;;;;;;2.97;1.60;;;27.40;97.60;;;;;;5080928;28;19923;-47
2022/06/18 11:58:22;;;;;;;3.88;1.80;;;27.00;98.20;;;;;;5105763;28;20050;-49
2022/06/18 12:01:31;;;;;;;4.78;1.65;;;27.00;98.10;;;;;;5097964;28;20687;-48
2022/06/18 12:04:19;;;;;;;5.13;1.50;;;26.80;97.50;;;;;;5058870;28;20055;-47
2022/06/18 12:07:20;;;;;;;2.58;1.52;;;26.70;98.10;;;;;;5080467;28;20368;-46
2022/06/18 12:09:46;;;;;;;4.82;1.80;;;26.40;98.00;;;;;;5084143;28;20056;-46
2022/06/18 12:12:17;;;;;;;3.50;1.90;;;26.40;98.80;;;;;;5084264;28;20117;-47
2022/06/18 12:15:06;;;;;;;2.83;1.50;;;26.30;98.30;;;;;;5083790;28;20068;-46
2022/06/18 12:17:59;;;;;;;3.67;1.60;;;26.20;98.50;;;;;;5098394;28;20113;-47
2022/06/18 12:20:31;;;;;;;;;;;26.20;99.30;;;;;;5102407;28;20048;-47
2022/06/18 12:23:45;;;;;;;5.22;1.55;;;26.20;98.80;;;;;;5102636;28;20274;-47
2022/06/18 12:26:45;;;;;;;3.83;1.70;;;26.30;98.70;;;;;;5079324;28;20048;-48
2022/06/18 12:29:13;;;;;;;2.60;1.40;;;26.20;98.70;;;;;;5102629;28;20259;-46
2022/06/18 12:31:47;;;;;;;5.70;1.75;;;26.30;99.10;;;;;;5101850;28;20798;-46
2022/06/18 12:34:26;;;;;;;4.30;1.48;;;26.50;99.70;;;;;;5084042;28;20083;-45
2022/06/18 12:37:04;;;;;;;5.03;1.80;;;26.90;99.40;;;;;;5102890;28;20163;-46
2022/06/18 12:39:48;;;;;;;4.75;1.65;;;27.10;98.00;;;;;;5097695;28;20066;-47
2022/06/18 12:42:23;;;;;;;4.18;1.27;;;27.40;98.30;;;;;;5099750;28;20047;-45
2022/06/18 12:45:23;;;;;;;3.10;1.40;;;27.40;98.00;;;;;;5081095;28;20036;-46
2022/06/18 12:48:21;;;;;;;6.50;1.70;;;27.40;96.90;;;;;;4981792;28;20301;-46
2022/06/18 12:51:08;;;;;;;4.05;1.50;;;27.20;97.80;;;;;;4986219;28;20101;-49
2022/06/18 12:53:49;;;;;;;5.30;1.58;;;27.00;97.70;;;;;;4986854;28;20061;-47
2022/06/18 12:56:28;;;;;;;4.63;1.67;;;26.90;98.00;;;;;;4995204;28;20049;-45
2022/06/18 12:59:21;;;;;;;23.55;4.18;;;26.90;98.20;;;;;;4996976;28;20184;-46
2022/06/18 13:01:50;;;;;;;;;;;26.80;97.80;;;;;;4990903;28;20522;-47
2022/06/18 13:04:25;;;;;;;6.28;2.30;;;26.60;97.50;;;;;;4990277;28;19929;-46
2022/06/18 13:07:03;;;;;;;20.15;2.72;;;26.50;98.40;;;;;;4995008;28;20329;-45
2022/06/18 13:09:49;;;;;;;8.80;2.38;;;26.40;96.70;;;;;;4994325;28;20057;-46
2022/06/18 13:12:23;;;;;;;9.30;2.58;;;26.30;97.80;;;;;;4978401;28;20065;-45
2022/06/18 13:14:57;;;;;;;7.07;2.30;;;26.20;97.20;;;;;;4993756;28;20094;-46
2022/06/18 13:17:40;;;;;;;21.80;2.80;;;26.20;97.30;;;;;;4992385;28;20057;-46
2022/06/18 13:20:08;;;;;;;;;;;26.20;97.00;;;;;;5016181;28;20041;-46
2022/06/18 13:22:34;;;;;;;9.63;2.58;;;26.00;97.10;;;;;;5011156;28;19925;-46